sensor_id;sensor_type;location;lat;lon;timestamp;temperature;humidity
22917;DHT22;11624;53.250;7.456;2023-04-01T00:00:37;16.90;60.13
22917;DHT22;11624;53.250;7.456;2023-04-01T00:03:05;16.93;60.06
22917;DHT22;11624;53.250;7.456;2023-04-01T00:05:33;16.88;60.19
22917;DHT22;11624;53.250;7.456;2023-04-01T00:08:01;16.89;60.15
22917;DHT22;11624;53.250;7.456;2023-04-01T00:10:29;16.91;60.09
22917;DHT22;11624;53.250;7.456;2023-04-01T00:13:01;16.88;60.22
22917;DHT22;11624;53.250;7.456;2023-04-01T00:15:29;16.93;60.15
22917;DHT22;11624;53.250;7.456;2023-04-01T00:17:58;16.96;60.05
22917;DHT22;11624;53.250;7.456;2023-04-01T00:20:27;17.00;59.99
22917;DHT22;11624;53.250;7.456;2023-04-01T00:22:55;17.01;59.96
22917;DHT22;11624;53.250;7.456;2023-04-01T00:25:24;16.93;60.14
22917;DHT22;11624;53.250;7.456;2023-04-01T00:27:52;16.76;60.62
22917;DHT22;11624;53.250;7.456;2023-04-01T00:30:21;16.80;60.48
22917;DHT22;11624;53.250;7.456;2023-04-01T00:32:51;16.87;60.32
22917;DHT22;11624;53.250;7.456;2023-04-01T00:35:20;16.89;60.28
22917;DHT22;11624;53.250;7.456;2023-04-01T00:37:49;16.91;60.24
22917;DHT22;11624;53.250;7.456;2023-04-01T00:40:25;16.85;60.06
22917;DHT22;11624;53.250;7.456;2023-04-01T00:42:53;16.88;60.23
22917;DHT22;11624;53.250;7.456;2023-04-01T00:45:33;16.86;59.96
22917;DHT22;11624;53.250;7.456;2023-04-01T00:48:04;16.88;60.22
22917;DHT22;11624;53.250;7.456;2023-04-01T00:50:34;16.89;60.19
22917;DHT22;11624;53.250;7.456;2023-04-01T00:53:05;16.90;60.21
22917;DHT22;11624;53.250;7.456;2023-04-01T00:55:35;16.90;60.22
22917;DHT22;11624;53.250;7.456;2023-04-01T00:58:07;16.94;60.11
22917;DHT22;11624;53.250;7.456;2023-04-01T01:00:38;17.00;60.02
22917;DHT22;11624;53.250;7.456;2023-04-01T01:03:06;17.01;59.96
22917;DHT22;11624;53.250;7.456;2023-04-01T01:05:43;17.02;59.67
22917;DHT22;11624;53.250;7.456;2023-04-01T01:08:22;16.99;59.70
22917;DHT22;11624;53.250;7.456;2023-04-01T01:10:53;17.02;59.95
22917;DHT22;11624;53.250;7.456;2023-04-01T01:13:26;17.05;59.66
22917;DHT22;11624;53.250;7.456;2023-04-01T01:16:01;17.06;59.69
22917;DHT22;11624;53.250;7.456;2023-04-01T01:18:36;16.96;59.79
22917;DHT22;11624;53.250;7.456;2023-04-01T01:21:38;16.96;59.70
22917;DHT22;11624;53.250;7.456;2023-04-01T01:27:06;17.03;59.86
22917;DHT22;11624;53.250;7.456;2023-04-01T01:30:07;17.03;59.70
22917;DHT22;11624;53.250;7.456;2023-04-01T01:32:51;17.02;59.74
22917;DHT22;11624;53.250;7.456;2023-04-01T01:35:26;17.04;59.80
22917;DHT22;11624;53.250;7.456;2023-04-01T01:37:59;17.05;59.81
22917;DHT22;11624;53.250;7.456;2023-04-01T01:40:29;17.07;59.90
22917;DHT22;11624;53.250;7.456;2023-04-01T01:43:04;17.06;59.84
22917;DHT22;11624;53.250;7.456;2023-04-01T01:45:34;17.09;59.90
22917;DHT22;11624;53.250;7.456;2023-04-01T01:48:07;17.10;59.85
22917;DHT22;11624;53.250;7.456;2023-04-01T01:50:38;17.10;59.80
22917;DHT22;11624;53.250;7.456;2023-04-01T01:53:11;17.10;59.70
22917;DHT22;11624;53.250;7.456;2023-04-01T01:55:41;17.11;59.86
22917;DHT22;11624;53.250;7.456;2023-04-01T01:58:13;17.13;59.74
22917;DHT22;11624;53.250;7.456;2023-04-01T02:00:47;17.13;59.73
22917;DHT22;11624;53.250;7.456;2023-04-01T02:03:17;17.16;59.74
22917;DHT22;11624;53.250;7.456;2023-04-01T02:05:47;17.13;59.73
22917;DHT22;11624;53.250;7.456;2023-04-01T02:08:18;17.11;59.74
22917;DHT22;11624;53.250;7.456;2023-04-01T02:10:53;17.09;59.68
22917;DHT22;11624;53.250;7.456;2023-04-01T02:13:27;17.03;59.93
22917;DHT22;11624;53.250;7.456;2023-04-01T02:16:00;17.04;60.00
22917;DHT22;11624;53.250;7.456;2023-04-01T02:18:33;17.03;59.96
22917;DHT22;11624;53.250;7.456;2023-04-01T02:21:05;17.06;59.90
22917;DHT22;11624;53.250;7.456;2023-04-01T02:23:35;17.06;59.95
22917;DHT22;11624;53.250;7.456;2023-04-01T02:26:05;17.05;59.91
22917;DHT22;11624;53.250;7.456;2023-04-01T02:28:36;17.06;59.86
22917;DHT22;11624;53.250;7.456;2023-04-01T02:31:08;17.04;59.83
22917;DHT22;11624;53.250;7.456;2023-04-01T02:33:38;17.03;59.95
22917;DHT22;11624;53.250;7.456;2023-04-01T02:36:10;17.04;59.72
22917;DHT22;11624;53.250;7.456;2023-04-01T02:38:41;17.06;59.78
22917;DHT22;11624;53.250;7.456;2023-04-01T02:41:09;17.03;59.77
22917;DHT22;11624;53.250;7.456;2023-04-01T02:43:37;17.02;59.80
22917;DHT22;11624;53.250;7.456;2023-04-01T02:46:06;17.00;59.81
22917;DHT22;11624;53.250;7.456;2023-04-01T02:48:34;17.01;59.78
22917;DHT22;11624;53.250;7.456;2023-04-01T02:51:02;17.01;59.70
22917;DHT22;11624;53.250;7.456;2023-04-01T02:53:32;16.93;59.79
22917;DHT22;11624;53.250;7.456;2023-04-01T02:56:00;16.91;59.87
22917;DHT22;11624;53.250;7.456;2023-04-01T02:58:28;16.89;59.93
22917;DHT22;11624;53.250;7.456;2023-04-01T03:00:56;16.87;59.90
22917;DHT22;11624;53.250;7.456;2023-04-01T03:03:24;16.89;59.89
22917;DHT22;11624;53.250;7.456;2023-04-01T03:05:52;16.91;59.77
22917;DHT22;11624;53.250;7.456;2023-04-01T03:08:22;16.87;59.81
22917;DHT22;11624;53.250;7.456;2023-04-01T03:10:52;16.77;60.06
22917;DHT22;11624;53.250;7.456;2023-04-01T03:13:20;16.80;59.93
22917;DHT22;11624;53.250;7.456;2023-04-01T03:15:48;16.78;59.99
22917;DHT22;11624;53.250;7.456;2023-04-01T03:18:16;16.79;59.90
22917;DHT22;11624;53.250;7.456;2023-04-01T03:20:44;16.75;60.11
22917;DHT22;11624;53.250;7.456;2023-04-01T03:23:13;16.75;60.18
22917;DHT22;11624;53.250;7.456;2023-04-01T03:25:43;16.78;60.12
22917;DHT22;11624;53.250;7.456;2023-04-01T03:28:12;16.79;60.08
22917;DHT22;11624;53.250;7.456;2023-04-01T03:30:41;16.76;60.15
22917;DHT22;11624;53.250;7.456;2023-04-01T03:33:09;16.71;60.38
22917;DHT22;11624;53.250;7.456;2023-04-01T03:35:37;16.64;60.62
22917;DHT22;11624;53.250;7.456;2023-04-01T03:38:05;16.63;60.62
22917;DHT22;11624;53.250;7.456;2023-04-01T03:40:33;16.63;60.55
22917;DHT22;11624;53.250;7.456;2023-04-01T03:43:04;16.59;60.74
22917;DHT22;11624;53.250;7.456;2023-04-01T03:45:43;16.64;60.31
22917;DHT22;11624;53.250;7.456;2023-04-01T03:48:12;16.73;60.36
22917;DHT22;11624;53.250;7.456;2023-04-01T03:50:40;16.70;60.44
22917;DHT22;11624;53.250;7.456;2023-04-01T03:53:09;16.70;60.43
22917;DHT22;11624;53.250;7.456;2023-04-01T03:55:40;16.70;60.41
22917;DHT22;11624;53.250;7.456;2023-04-01T03:58:09;16.64;60.51
22917;DHT22;11624;53.250;7.456;2023-04-01T04:00:38;16.64;60.41
22917;DHT22;11624;53.250;7.456;2023-04-01T04:03:06;16.67;60.27
22917;DHT22;11624;53.250;7.456;2023-04-01T04:05:35;16.72;60.12
22917;DHT22;11624;53.250;7.456;2023-04-01T04:08:03;16.75;60.05
22917;DHT22;11624;53.250;7.456;2023-04-01T04:10:34;16.76;60.06
22917;DHT22;11624;53.250;7.456;2023-04-01T04:13:02;16.81;59.96
22917;DHT22;11624;53.250;7.456;2023-04-01T04:15:35;16.80;59.90
22917;DHT22;11624;53.250;7.456;2023-04-01T04:18:05;16.75;59.99
22917;DHT22;11624;53.250;7.456;2023-04-01T04:20:33;16.74;60.02
22917;DHT22;11624;53.250;7.456;2023-04-01T04:23:01;16.74;60.02
22917;DHT22;11624;53.250;7.456;2023-04-01T04:25:30;16.75;60.02
22917;DHT22;11624;53.250;7.456;2023-04-01T04:27:59;16.78;60.02
22917;DHT22;11624;53.250;7.456;2023-04-01T04:30:27;16.78;60.02
22917;DHT22;11624;53.250;7.456;2023-04-01T04:32:55;16.80;59.99
22917;DHT22;11624;53.250;7.456;2023-04-01T04:35:25;16.81;59.92
22917;DHT22;11624;53.250;7.456;2023-04-01T04:37:53;16.79;60.02
22917;DHT22;11624;53.250;7.456;2023-04-01T04:40:22;16.77;60.07
22917;DHT22;11624;53.250;7.456;2023-04-01T04:42:50;16.81;60.01
22917;DHT22;11624;53.250;7.456;2023-04-01T04:45:18;16.85;60.02
22917;DHT22;11624;53.250;7.456;2023-04-01T04:47:53;16.87;59.97
22917;DHT22;11624;53.250;7.456;2023-04-01T04:50:21;16.87;59.94
22917;DHT22;11624;53.250;7.456;2023-04-01T04:52:51;16.87;59.96
22917;DHT22;11624;53.250;7.456;2023-04-01T04:55:19;16.89;59.93
22917;DHT22;11624;53.250;7.456;2023-04-01T04:57:55;16.86;59.99
22917;DHT22;11624;53.250;7.456;2023-04-01T05:00:24;16.87;59.97
22917;DHT22;11624;53.250;7.456;2023-04-01T05:02:56;16.88;59.93
22917;DHT22;11624;53.250;7.456;2023-04-01T05:05:24;16.88;59.94
22917;DHT22;11624;53.250;7.456;2023-04-01T05:07:54;16.87;59.96
22917;DHT22;11624;53.250;7.456;2023-04-01T05:10:22;16.86;59.92
22917;DHT22;11624;53.250;7.456;2023-04-01T05:12:50;16.82;59.99
22917;DHT22;11624;53.250;7.456;2023-04-01T05:15:21;16.86;59.97
22917;DHT22;11624;53.250;7.456;2023-04-01T05:17:50;16.81;60.03
22917;DHT22;11624;53.250;7.456;2023-04-01T05:20:18;16.84;59.97
22917;DHT22;11624;53.250;7.456;2023-04-01T05:22:46;16.80;60.04
22917;DHT22;11624;53.250;7.456;2023-04-01T05:25:16;16.78;60.09
22917;DHT22;11624;53.250;7.456;2023-04-01T05:27:44;16.77;60.22
22917;DHT22;11624;53.250;7.456;2023-04-01T05:30:12;16.81;60.20
22917;DHT22;11624;53.250;7.456;2023-04-01T05:33:13;16.81;60.12
22917;DHT22;11624;53.250;7.456;2023-04-01T05:35:41;16.86;60.07
22917;DHT22;11624;53.250;7.456;2023-04-01T05:38:12;16.89;59.93
22917;DHT22;11624;53.250;7.456;2023-04-01T05:40:42;16.91;59.83
22917;DHT22;11624;53.250;7.456;2023-04-01T05:43:10;16.91;59.86
22917;DHT22;11624;53.250;7.456;2023-04-01T05:45:39;16.88;59.92
22917;DHT22;11624;53.250;7.456;2023-04-01T05:48:09;16.89;59.86
22917;DHT22;11624;53.250;7.456;2023-04-01T05:50:40;16.88;59.90
22917;DHT22;11624;53.250;7.456;2023-04-01T05:53:10;16.92;59.85
22917;DHT22;11624;53.250;7.456;2023-04-01T05:55:42;16.90;59.99
22917;DHT22;11624;53.250;7.456;2023-04-01T05:58:10;16.95;59.96
22917;DHT22;11624;53.250;7.456;2023-04-01T06:00:42;16.89;60.23
22917;DHT22;11624;53.250;7.456;2023-04-01T06:03:11;16.86;60.35
22917;DHT22;11624;53.250;7.456;2023-04-01T06:05:40;16.90;60.41
22917;DHT22;11624;53.250;7.456;2023-04-01T06:08:13;16.98;60.14
22917;DHT22;11624;53.250;7.456;2023-04-01T06:10:58;17.01;60.06
22917;DHT22;11624;53.250;7.456;2023-04-01T06:13:41;17.11;59.79
22917;DHT22;11624;53.250;7.456;2023-04-01T06:16:20;17.14;59.93
22917;DHT22;11624;53.250;7.456;2023-04-01T06:19:09;17.13;59.71
22917;DHT22;11624;53.250;7.456;2023-04-01T06:21:58;17.11;59.61
22917;DHT22;11624;53.250;7.456;2023-04-01T06:24:49;17.14;59.81
22917;DHT22;11624;53.250;7.456;2023-04-01T06:27:32;17.20;59.83
22917;DHT22;11624;53.250;7.456;2023-04-01T06:30:17;17.25;59.80
22917;DHT22;11624;53.250;7.456;2023-04-01T06:33:02;17.29;59.76
22917;DHT22;11624;53.250;7.456;2023-04-01T06:35:51;17.18;59.97
22917;DHT22;11624;53.250;7.456;2023-04-01T06:38:38;17.22;59.58
22917;DHT22;11624;53.250;7.456;2023-04-01T06:44:15;17.37;59.70
22917;DHT22;11624;53.250;7.456;2023-04-01T06:47:11;17.44;59.70
22917;DHT22;11624;53.250;7.456;2023-04-01T06:50:21;17.47;59.66
22917;DHT22;11624;53.250;7.456;2023-04-01T06:52:58;17.52;59.71
22917;DHT22;11624;53.250;7.456;2023-04-01T06:55:49;17.56;59.83
22917;DHT22;11624;53.250;7.456;2023-04-01T06:58:47;17.53;59.70
22917;DHT22;11624;53.250;7.456;2023-04-01T07:01:21;17.45;59.50
22917;DHT22;11624;53.250;7.456;2023-04-01T07:03:54;17.53;59.81
22917;DHT22;11624;53.250;7.456;2023-04-01T07:06:29;17.56;59.73
22917;DHT22;11624;53.250;7.456;2023-04-01T07:09:03;17.64;59.51
22917;DHT22;11624;53.250;7.456;2023-04-01T07:11:53;17.62;59.48
22917;DHT22;11624;53.250;7.456;2023-04-01T07:15:04;17.60;59.35
22917;DHT22;11624;53.250;7.456;2023-04-01T07:17:36;17.58;59.32
22917;DHT22;11624;53.250;7.456;2023-04-01T07:20:12;17.50;59.38
22917;DHT22;11624;53.250;7.456;2023-04-01T07:22:45;17.52;59.85
22917;DHT22;11624;53.250;7.456;2023-04-01T07:25:27;17.69;59.80
22917;DHT22;11624;53.250;7.456;2023-04-01T07:28:17;17.79;59.64
22917;DHT22;11624;53.250;7.456;2023-04-01T07:31:04;17.91;59.40
22917;DHT22;11624;53.250;7.456;2023-04-01T07:33:39;17.96;59.12
22917;DHT22;11624;53.250;7.456;2023-04-01T07:36:14;17.97;58.99
22917;DHT22;11624;53.250;7.456;2023-04-01T07:38:53;17.99;59.04
22917;DHT22;11624;53.250;7.456;2023-04-01T07:41:51;18.09;58.71
22917;DHT22;11624;53.250;7.456;2023-04-01T07:44:25;18.08;58.71
22917;DHT22;11624;53.250;7.456;2023-04-01T07:47:05;18.05;58.58
22917;DHT22;11624;53.250;7.456;2023-04-01T07:49:45;18.06;58.35
22917;DHT22;11624;53.250;7.456;2023-04-01T07:52:22;18.04;58.56
22917;DHT22;11624;53.250;7.456;2023-04-01T07:55:04;18.02;58.51
22917;DHT22;11624;53.250;7.456;2023-04-01T07:57:39;18.05;58.09
22917;DHT22;11624;53.250;7.456;2023-04-01T08:00:17;17.98;58.12
22917;DHT22;11624;53.250;7.456;2023-04-01T08:03:15;17.88;58.00
22917;DHT22;11624;53.250;7.456;2023-04-01T08:05:55;17.94;57.81
22917;DHT22;11624;53.250;7.456;2023-04-01T08:08:34;17.81;57.96
22917;DHT22;11624;53.250;7.456;2023-04-01T08:11:32;17.96;58.11
22917;DHT22;11624;53.250;7.456;2023-04-01T08:14:25;17.99;58.50
22917;DHT22;11624;53.250;7.456;2023-04-01T08:17:23;18.12;57.87
22917;DHT22;11624;53.250;7.456;2023-04-01T08:20:03;18.26;57.90
22917;DHT22;11624;53.250;7.456;2023-04-01T08:22:40;18.42;57.61
22917;DHT22;11624;53.250;7.456;2023-04-01T08:25:20;18.42;57.39
22917;DHT22;11624;53.250;7.456;2023-04-01T08:27:54;18.36;57.22
22917;DHT22;11624;53.250;7.456;2023-04-01T08:30:26;18.37;57.47
22917;DHT22;11624;53.250;7.456;2023-04-01T08:33:00;18.41;56.68
22917;DHT22;11624;53.250;7.456;2023-04-01T08:35:38;18.44;56.53
22917;DHT22;11624;53.250;7.456;2023-04-01T08:38:15;18.41;56.57
22917;DHT22;11624;53.250;7.456;2023-04-01T08:40:56;18.44;56.71
22917;DHT22;11624;53.250;7.456;2023-04-01T08:44:14;18.46;56.15
22917;DHT22;11624;53.250;7.456;2023-04-01T08:50:12;17.93;55.10
22917;DHT22;11624;53.250;7.456;2023-04-01T08:53:00;17.67;55.71
22917;DHT22;11624;53.250;7.456;2023-04-01T08:55:38;17.55;55.90
22917;DHT22;11624;53.250;7.456;2023-04-01T08:58:50;17.44;55.94
22917;DHT22;11624;53.250;7.456;2023-04-01T09:01:55;17.30;56.21
22917;DHT22;11624;53.250;7.456;2023-04-01T09:05:03;17.16;56.06
22917;DHT22;11624;53.250;7.456;2023-04-01T09:07:40;17.16;56.22
22917;DHT22;11624;53.250;7.456;2023-04-01T09:14:07;17.01;56.77
22917;DHT22;11624;53.250;7.456;2023-04-01T09:22:58;17.02;56.11
22917;DHT22;11624;53.250;7.456;2023-04-01T09:25:48;16.94;56.41
22917;DHT22;11624;53.250;7.456;2023-04-01T09:28:19;16.96;56.74
22917;DHT22;11624;53.250;7.456;2023-04-01T09:31:04;16.92;56.25
22917;DHT22;11624;53.250;7.456;2023-04-01T09:34:17;16.60;56.52
22917;DHT22;11624;53.250;7.456;2023-04-01T09:37:19;16.54;56.67
22917;DHT22;11624;53.250;7.456;2023-04-01T09:40:15;16.54;57.00
22917;DHT22;11624;53.250;7.456;2023-04-01T09:46:14;16.67;56.84
22917;DHT22;11624;53.250;7.456;2023-04-01T09:51:52;16.58;56.68
22917;DHT22;11624;53.250;7.456;2023-04-01T09:54:46;16.49;56.38
22917;DHT22;11624;53.250;7.456;2023-04-01T09:57:42;16.43;56.60
22917;DHT22;11624;53.250;7.456;2023-04-01T10:10:20;16.36;56.93
22917;DHT22;11624;53.250;7.456;2023-04-01T10:13:26;16.48;56.71
22917;DHT22;11624;53.250;7.456;2023-04-01T10:16:20;16.52;56.91
22917;DHT22;11624;53.250;7.456;2023-04-01T10:32:22;16.73;55.94
22917;DHT22;11624;53.250;7.456;2023-04-01T10:35:14;16.80;55.88
22917;DHT22;11624;53.250;7.456;2023-04-01T10:38:22;16.72;55.62
22917;DHT22;11624;53.250;7.456;2023-04-01T10:41:20;16.67;55.55
22917;DHT22;11624;53.250;7.456;2023-04-01T10:44:42;16.74;55.78
22917;DHT22;11624;53.250;7.456;2023-04-01T10:47:48;16.71;55.93
22917;DHT22;11624;53.250;7.456;2023-04-01T10:50:27;16.74;55.83
22917;DHT22;11624;53.250;7.456;2023-04-01T10:56:53;16.61;55.36
22917;DHT22;11624;53.250;7.456;2023-04-01T11:00:15;16.56;55.73
22917;DHT22;11624;53.250;7.456;2023-04-01T11:07:16;16.51;55.49
22917;DHT22;11624;53.250;7.456;2023-04-01T11:13:55;16.32;55.44
22917;DHT22;11624;53.250;7.456;2023-04-01T11:16:48;16.44;55.57
22917;DHT22;11624;53.250;7.456;2023-04-01T11:22:51;16.71;55.69
22917;DHT22;11624;53.250;7.456;2023-04-01T11:25:41;16.79;55.84
22917;DHT22;11624;53.250;7.456;2023-04-01T11:31:53;17.09;54.87
22917;DHT22;11624;53.250;7.456;2023-04-01T11:34:43;17.22;53.87
22917;DHT22;11624;53.250;7.456;2023-04-01T11:37:25;17.17;53.97
22917;DHT22;11624;53.250;7.456;2023-04-01T11:40:41;17.10;54.02
22917;DHT22;11624;53.250;7.456;2023-04-01T11:43:36;17.06;53.84
22917;DHT22;11624;53.250;7.456;2023-04-01T11:46:28;17.08;53.69
22917;DHT22;11624;53.250;7.456;2023-04-01T11:49:06;17.07;53.33
22917;DHT22;11624;53.250;7.456;2023-04-01T11:51:51;16.79;53.68
22917;DHT22;11624;53.250;7.456;2023-04-01T11:54:32;16.87;54.01
22917;DHT22;11624;53.250;7.456;2023-04-01T11:57:26;16.87;53.91
22917;DHT22;11624;53.250;7.456;2023-04-01T12:00:10;16.99;53.80
22917;DHT22;11624;53.250;7.456;2023-04-01T12:02:53;16.94;52.57
22917;DHT22;11624;53.250;7.456;2023-04-01T12:05:41;16.71;53.13
22917;DHT22;11624;53.250;7.456;2023-04-01T12:08:20;16.75;53.72
22917;DHT22;11624;53.250;7.456;2023-04-01T12:10:54;16.78;53.72
22917;DHT22;11624;53.250;7.456;2023-04-01T12:13:33;16.76;53.57
22917;DHT22;11624;53.250;7.456;2023-04-01T12:16:19;16.70;54.04
22917;DHT22;11624;53.250;7.456;2023-04-01T12:18:53;16.67;54.39
22917;DHT22;11624;53.250;7.456;2023-04-01T12:21:29;16.67;54.28
22917;DHT22;11624;53.250;7.456;2023-04-01T12:24:28;16.60;54.39
22917;DHT22;11624;53.250;7.456;2023-04-01T12:30:25;16.46;54.55
22917;DHT22;11624;53.250;7.456;2023-04-01T12:33:05;16.46;54.44
22917;DHT22;11624;53.250;7.456;2023-04-01T12:35:46;16.43;54.44
22917;DHT22;11624;53.250;7.456;2023-04-01T12:38:30;16.29;54.77
22917;DHT22;11624;53.250;7.456;2023-04-01T12:41:18;16.17;54.91
22917;DHT22;11624;53.250;7.456;2023-04-01T12:50:24;16.15;55.06
22917;DHT22;11624;53.250;7.456;2023-04-01T12:53:04;16.02;55.06
22917;DHT22;11624;53.250;7.456;2023-04-01T12:55:38;16.06;54.94
22917;DHT22;11624;53.250;7.456;2023-04-01T12:58:31;15.92;55.09
22917;DHT22;11624;53.250;7.456;2023-04-01T13:01:36;15.83;55.19
22917;DHT22;11624;53.250;7.456;2023-04-01T13:10:48;15.99;55.47
22917;DHT22;11624;53.250;7.456;2023-04-01T13:13:50;15.91;55.30
22917;DHT22;11624;53.250;7.456;2023-04-01T13:16:24;15.97;56.03
22917;DHT22;11624;53.250;7.456;2023-04-01T13:18:58;16.00;55.84
22917;DHT22;11624;53.250;7.456;2023-04-01T13:21:38;16.05;55.34
22917;DHT22;11624;53.250;7.456;2023-04-01T13:24:23;16.06;54.80
22917;DHT22;11624;53.250;7.456;2023-04-01T13:26:59;16.03;55.00
22917;DHT22;11624;53.250;7.456;2023-04-01T13:29:33;15.97;54.87
22917;DHT22;11624;53.250;7.456;2023-04-01T13:32:18;15.97;54.77
22917;DHT22;11624;53.250;7.456;2023-04-01T13:35:21;15.87;55.03
22917;DHT22;11624;53.250;7.456;2023-04-01T13:38:04;15.88;54.93
22917;DHT22;11624;53.250;7.456;2023-04-01T13:40:42;15.86;55.37
22917;DHT22;11624;53.250;7.456;2023-04-01T13:43:32;15.91;54.71
22917;DHT22;11624;53.250;7.456;2023-04-01T13:46:16;15.93;54.69
22917;DHT22;11624;53.250;7.456;2023-04-01T13:49:22;15.92;54.15
22917;DHT22;11624;53.250;7.456;2023-04-01T13:52:03;15.88;54.65
22917;DHT22;11624;53.250;7.456;2023-04-01T13:54:48;15.86;54.40
22917;DHT22;11624;53.250;7.456;2023-04-01T13:57:33;15.88;54.46
22917;DHT22;11624;53.250;7.456;2023-04-01T14:00:18;15.92;54.75
22917;DHT22;11624;53.250;7.456;2023-04-01T14:02:55;15.91;54.40
22917;DHT22;11624;53.250;7.456;2023-04-01T14:05:44;15.89;54.29
22917;DHT22;11624;53.250;7.456;2023-04-01T14:08:25;15.82;54.38
22917;DHT22;11624;53.250;7.456;2023-04-01T14:11:04;15.78;54.42
22917;DHT22;11624;53.250;7.456;2023-04-01T14:13:39;15.78;54.59
22917;DHT22;11624;53.250;7.456;2023-04-01T14:16:47;15.80;54.36
22917;DHT22;11624;53.250;7.456;2023-04-01T14:19:27;15.67;54.55
22917;DHT22;11624;53.250;7.456;2023-04-01T14:22:03;15.74;54.40
22917;DHT22;11624;53.250;7.456;2023-04-01T14:24:49;15.81;54.33
22917;DHT22;11624;53.250;7.456;2023-04-01T14:27:41;15.85;54.34
22917;DHT22;11624;53.250;7.456;2023-04-01T14:30:35;15.87;53.49
22917;DHT22;11624;53.250;7.456;2023-04-01T14:33:25;15.70;54.03
22917;DHT22;11624;53.250;7.456;2023-04-01T14:36:08;15.61;54.08
22917;DHT22;11624;53.250;7.456;2023-04-01T14:38:55;15.66;54.04
22917;DHT22;11624;53.250;7.456;2023-04-01T14:41:39;15.54;54.06
22917;DHT22;11624;53.250;7.456;2023-04-01T14:44:28;15.48;54.27
22917;DHT22;11624;53.250;7.456;2023-04-01T14:47:15;15.38;54.49
22917;DHT22;11624;53.250;7.456;2023-04-01T14:49:51;15.34;54.21
22917;DHT22;11624;53.250;7.456;2023-04-01T14:52:26;15.26;54.26
22917;DHT22;11624;53.250;7.456;2023-04-01T14:54:56;15.21;54.77
22917;DHT22;11624;53.250;7.456;2023-04-01T14:57:28;15.13;54.74
22917;DHT22;11624;53.250;7.456;2023-04-01T15:00:00;15.09;54.37
22917;DHT22;11624;53.250;7.456;2023-04-01T15:02:48;14.94;54.23
22917;DHT22;11624;53.250;7.456;2023-04-01T15:05:30;14.92;54.46
22917;DHT22;11624;53.250;7.456;2023-04-01T15:08:15;14.83;54.28
22917;DHT22;11624;53.250;7.456;2023-04-01T15:14:03;14.74;54.50
22917;DHT22;11624;53.250;7.456;2023-04-01T15:16:41;14.69;54.44
22917;DHT22;11624;53.250;7.456;2023-04-01T15:19:18;14.62;54.78
22917;DHT22;11624;53.250;7.456;2023-04-01T15:22:05;14.47;54.65
22917;DHT22;11624;53.250;7.456;2023-04-01T15:24:46;14.20;55.39
22917;DHT22;11624;53.250;7.456;2023-04-01T15:27:25;14.19;55.41
22917;DHT22;11624;53.250;7.456;2023-04-01T15:35:51;14.32;55.02
22917;DHT22;11624;53.250;7.456;2023-04-01T15:38:33;14.25;54.82
22917;DHT22;11624;53.250;7.456;2023-04-01T15:41:10;14.23;55.16
22917;DHT22;11624;53.250;7.456;2023-04-01T15:43:43;14.25;55.29
22917;DHT22;11624;53.250;7.456;2023-04-01T15:46:36;14.20;55.07
22917;DHT22;11624;53.250;7.456;2023-04-01T15:49:27;14.15;54.82
22917;DHT22;11624;53.250;7.456;2023-04-01T15:52:06;14.10;55.44
22917;DHT22;11624;53.250;7.456;2023-04-01T15:57:41;14.12;54.78
22917;DHT22;11624;53.250;7.456;2023-04-01T16:00:23;13.96;54.81
22917;DHT22;11624;53.250;7.456;2023-04-01T16:03:09;13.90;55.20
22917;DHT22;11624;53.250;7.456;2023-04-01T16:05:45;13.84;55.42
22917;DHT22;11624;53.250;7.456;2023-04-01T16:11:21;13.80;55.16
22917;DHT22;11624;53.250;7.456;2023-04-01T16:13:59;13.83;55.20
22917;DHT22;11624;53.250;7.456;2023-04-01T16:16:39;13.74;55.02
22917;DHT22;11624;53.250;7.456;2023-04-01T16:19:26;13.81;55.17
22917;DHT22;11624;53.250;7.456;2023-04-01T16:22:02;13.91;55.03
22917;DHT22;11624;53.250;7.456;2023-04-01T16:24:35;13.91;55.03
22917;DHT22;11624;53.250;7.456;2023-04-01T16:27:09;13.79;55.00
22917;DHT22;11624;53.250;7.456;2023-04-01T16:29:45;13.75;55.03
22917;DHT22;11624;53.250;7.456;2023-04-01T16:32:21;13.77;55.05
22917;DHT22;11624;53.250;7.456;2023-04-01T16:35:03;13.79;55.05
22917;DHT22;11624;53.250;7.456;2023-04-01T16:37:36;13.81;54.93
22917;DHT22;11624;53.250;7.456;2023-04-01T16:40:14;13.69;54.67
22917;DHT22;11624;53.250;7.456;2023-04-01T16:42:49;13.70;54.77
22917;DHT22;11624;53.250;7.456;2023-04-01T16:45:30;13.67;54.52
22917;DHT22;11624;53.250;7.456;2023-04-01T16:48:07;13.63;54.56
22917;DHT22;11624;53.250;7.456;2023-04-01T16:50:51;13.54;54.61
22917;DHT22;11624;53.250;7.456;2023-04-01T16:53:25;13.41;54.88
22917;DHT22;11624;53.250;7.456;2023-04-01T16:56:07;13.45;54.65
22917;DHT22;11624;53.250;7.456;2023-04-01T16:58:42;13.39;54.76
22917;DHT22;11624;53.250;7.456;2023-04-01T17:01:20;13.40;55.12
22917;DHT22;11624;53.250;7.456;2023-04-01T17:03:53;13.39;55.13
22917;DHT22;11624;53.250;7.456;2023-04-01T17:06:31;13.46;54.94
22917;DHT22;11624;53.250;7.456;2023-04-01T17:09:17;13.36;55.04
22917;DHT22;11624;53.250;7.456;2023-04-01T17:11:52;13.35;55.13
22917;DHT22;11624;53.250;7.456;2023-04-01T17:14:29;13.41;54.57
22917;DHT22;11624;53.250;7.456;2023-04-01T17:17:18;13.45;54.58
22917;DHT22;11624;53.250;7.456;2023-04-01T17:20:10;13.19;54.87
22917;DHT22;11624;53.250;7.456;2023-04-01T17:22:44;13.21;55.21
22917;DHT22;11624;53.250;7.456;2023-04-01T17:25:27;13.27;54.81
22917;DHT22;11624;53.250;7.456;2023-04-01T17:28:03;13.29;55.00
22917;DHT22;11624;53.250;7.456;2023-04-01T17:30:38;13.23;54.88
22917;DHT22;11624;53.250;7.456;2023-04-01T17:33:20;13.23;54.81
22917;DHT22;11624;53.250;7.456;2023-04-01T17:35:57;13.25;54.81
22917;DHT22;11624;53.250;7.456;2023-04-01T17:38:49;13.20;54.59
22917;DHT22;11624;53.250;7.456;2023-04-01T17:41:31;13.20;54.46
22917;DHT22;11624;53.250;7.456;2023-04-01T17:44:10;13.20;54.51
22917;DHT22;11624;53.250;7.456;2023-04-01T17:46:55;13.22;54.46
22917;DHT22;11624;53.250;7.456;2023-04-01T17:49:30;13.07;54.86
22917;DHT22;11624;53.250;7.456;2023-04-01T17:52:04;13.10;54.79
22917;DHT22;11624;53.250;7.456;2023-04-01T17:54:45;13.14;54.66
22917;DHT22;11624;53.250;7.456;2023-04-01T17:57:30;13.15;54.50
22917;DHT22;11624;53.250;7.456;2023-04-01T18:00:12;13.03;54.96
22917;DHT22;11624;53.250;7.456;2023-04-01T18:02:50;12.99;54.62
22917;DHT22;11624;53.250;7.456;2023-04-01T18:05:27;12.96;54.52
22917;DHT22;11624;53.250;7.456;2023-04-01T18:08:13;12.92;54.58
22917;DHT22;11624;53.250;7.456;2023-04-01T18:10:53;12.94;54.33
22917;DHT22;11624;53.250;7.456;2023-04-01T18:13:36;12.97;54.38
22917;DHT22;11624;53.250;7.456;2023-04-01T18:16:26;12.92;54.30
22917;DHT22;11624;53.250;7.456;2023-04-01T18:19:02;12.92;54.19
22917;DHT22;11624;53.250;7.456;2023-04-01T18:21:43;12.92;54.17